Time;durP1;ratioP1;P1;durP2;ratioP2;P2;SDS_P1;SDS_P2;PMS_P1;PMS_P2;Temp;Humidity;BMP_temperature;BMP_pressure;BME280_temperature;BME280_humidity;BME280_pressure;Samples;Min_cycle;Max_cycle;Signal;HPM_P1;HPM_P2
2023/09/26 00:00:56;;;;;;;;;;;15.50;99.90;;;;;;5096880;28;20157;-80
2023/09/26 00:03:22;;;;;;;;;;;15.50;99.90;;;;;;5101865;28;19953;-80
2023/09/26 00:05:48;;;;;;;;;;;15.50;99.90;;;;;;5101433;28;19928;-80
2023/09/26 00:08:17;;;;;;;;;;;15.50;99.90;;;;;;5088539;28;20301;-81
2023/09/26 00:10:42;;;;;;;;;;;15.50;99.90;;;;;;5099667;28;19932;-80
2023/09/26 00:13:08;;;;;;;;;;;15.50;99.90;;;;;;5121344;27;20382;-80
2023/09/26 00:15:34;;;;;;;;;;;15.50;99.90;;;;;;5099517;27;19927;-80
2023/09/26 00:18:02;;;;;;;;;;;15.50;99.90;;;;;;5089000;28;20014;-80
2023/09/26 00:20:27;;;;;;;;;;;15.50;99.90;;;;;;5076071;28;19931;-80
2023/09/26 00:22:54;;;;;;;;;;;15.50;99.90;;;;;;5085646;28;19924;-80
2023/09/26 00:25:20;;;;;;;;;;;15.50;99.90;;;;;;5085696;28;19928;-80
2023/09/26 00:27:45;;;;;;;;;;;15.50;99.90;;;;;;5088231;27;19933;-80
2023/09/26 00:30:12;;;;;;;;;;;15.50;99.90;;;;;;5098296;28;20224;-81
2023/09/26 00:32:38;;;;;;;;;;;15.50;99.90;;;;;;5087688;28;20251;-81
2023/09/26 00:35:14;;;;;;;;;;;15.50;99.90;;;;;;5084932;28;19935;-80
2023/09/26 00:37:40;;;;;;;;;;;15.50;99.90;;;;;;5083785;28;19934;-80
2023/09/26 00:40:15;;;;;;;;;;;15.50;99.90;;;;;;5099109;27;19928;-80
2023/09/26 00:42:44;;;;;;;;;;;15.40;99.90;;;;;;5086785;28;19967;-80
2023/09/26 00:45:11;;;;;;;;;;;15.40;99.90;;;;;;5101305;28;20328;-81
2023/09/26 00:47:40;;;;;;;;;;;15.40;99.90;;;;;;5083164;28;19946;-80
2023/09/26 00:50:12;;;;;;;;;;;15.30;99.90;;;;;;5117579;27;19928;-76
2023/09/26 00:52:42;;;;;;;;;;;15.30;99.90;;;;;;5128615;27;19964;-76
2023/09/26 00:55:09;;;;;;;;;;;15.30;99.90;;;;;;5085312;28;19934;-75
2023/09/26 00:57:35;;;;;;;;;;;15.30;99.90;;;;;;5096325;27;19971;-76
2023/09/26 01:00:02;;;;;;;;;;;15.20;99.90;;;;;;5100098;28;19928;-76
2023/09/26 01:02:27;;;;;;;;;;;15.20;99.90;;;;;;5099555;28;19939;-76
2023/09/26 01:04:53;;;;;;;;;;;15.20;99.90;;;;;;5087405;28;19923;-76
2023/09/26 01:07:20;;;;;;;;;;;15.10;99.90;;;;;;5085866;28;19924;-76
2023/09/26 01:09:46;;;;;;;;;;;15.10;99.90;;;;;;5101023;28;20064;-76
2023/09/26 01:12:12;;;;;;;;;;;15.00;99.90;;;;;;5079534;28;20007;-76
2023/09/26 01:14:37;;;;;;;;;;;15.00;99.90;;;;;;5101964;28;19923;-76
2023/09/26 01:17:03;;;;;;;;;;;15.00;99.90;;;;;;5097616;28;20382;-76
2023/09/26 01:19:29;;;;;;;;;;;15.00;99.90;;;;;;5100158;28;20315;-76
2023/09/26 01:21:55;;;;;;;;;;;14.90;99.90;;;;;;5085590;28;20600;-76
2023/09/26 01:24:20;;;;;;;;;;;14.90;99.90;;;;;;5102586;28;19939;-76
2023/09/26 01:26:46;;;;;;;;;;;14.80;99.90;;;;;;5083962;28;19928;-76
2023/09/26 01:29:12;;;;;;;;;;;14.80;99.90;;;;;;5106368;27;20016;-76
2023/09/26 01:31:38;;;;;;;;;;;14.80;99.90;;;;;;5099136;28;19942;-76
2023/09/26 01:34:04;;;;;;;;;;;14.80;99.90;;;;;;5100031;28;19928;-76
2023/09/26 01:36:30;;;;;;;;;;;14.80;99.90;;;;;;5085141;28;20084;-76
2023/09/26 01:38:56;;;;;;;;;;;14.70;99.90;;;;;;5097594;28;19931;-76
2023/09/26 01:41:22;;;;;;;;;;;14.70;99.90;;;;;;5099481;28;19924;-76
2023/09/26 01:43:47;;;;;;;;;;;14.70;99.90;;;;;;5087946;28;19967;-76
2023/09/26 01:46:13;;;;;;;;;;;14.60;99.90;;;;;;5114022;27;19931;-76
2023/09/26 01:48:38;;;;;;;;;;;14.60;99.90;;;;;;5099511;27;19930;-76
2023/09/26 01:51:05;;;;;;;;;;;14.60;99.90;;;;;;5081996;28;20647;-76
2023/09/26 01:53:30;;;;;;;;;;;14.60;99.90;;;;;;5082704;28;19935;-76
2023/09/26 01:55:59;;;;;;;;;;;14.60;99.90;;;;;;5112383;27;19924;-76
2023/09/26 01:58:25;;;;;;;;;;;14.70;99.90;;;;;;5082344;28;20326;-76
2023/09/26 02:00:51;;;;;;;;;;;14.70;99.90;;;;;;5094566;28;19939;-76
2023/09/26 02:03:16;;;;;;;;;;;14.70;99.90;;;;;;5082179;28;20267;-76
2023/09/26 02:05:42;;;;;;;;;;;14.60;99.90;;;;;;5116046;27;19924;-76
2023/09/26 02:08:08;;;;;;;;;;;14.60;99.90;;;;;;5080661;28;20105;-75
2023/09/26 02:10:34;;;;;;;;;;;14.70;99.90;;;;;;5082381;28;19924;-76
2023/09/26 02:13:00;;;;;;;;;;;14.70;99.90;;;;;;5115638;27;19931;-76
2023/09/26 02:15:25;;;;;;;;;;;14.70;99.90;;;;;;5083200;28;19923;-76
2023/09/26 02:17:51;;;;;;;;;;;14.70;99.90;;;;;;5133574;27;19923;-77
2023/09/26 02:20:19;;;;;;;;;;;14.70;99.90;;;;;;5080942;28;19923;-76
2023/09/26 02:22:46;;;;;;;;;;;14.60;99.90;;;;;;5077929;28;19924;-76
2023/09/26 02:25:12;;;;;;;;;;;14.60;99.90;;;;;;5116961;27;20148;-76
2023/09/26 02:27:42;;;;;;;;;;;14.60;99.90;;;;;;5099398;28;20341;-76
2023/09/26 02:30:12;;;;;;;;;;;14.60;99.90;;;;;;5077643;28;20782;-76
2023/09/26 02:32:38;;;;;;;;;;;14.50;99.90;;;;;;5084696;28;19924;-76
2023/09/26 02:35:05;;;;;;;;;;;14.50;99.90;;;;;;5133818;27;19938;-76
2023/09/26 02:37:30;;;;;;;;;;;14.50;99.90;;;;;;5083587;28;19930;-76
2023/09/26 02:39:56;;;;;;;;;;;14.40;99.90;;;;;;5100817;28;19924;-76
2023/09/26 02:42:22;;;;;;;;;;;14.40;99.90;;;;;;5098476;28;19931;-75
2023/09/26 02:44:48;;;;;;;;;;;14.40;99.90;;;;;;5120007;27;19935;-76
2023/09/26 02:47:14;;;;;;;;;;;14.40;99.90;;;;;;5099037;28;20535;-77
2023/09/26 02:49:39;;;;;;;;;;;14.40;99.90;;;;;;5089872;28;20044;-77
2023/09/26 02:52:05;;;;;;;;;;;14.30;99.90;;;;;;5071888;28;20343;-81
2023/09/26 02:54:31;;;;;;;;;;;14.30;99.90;;;;;;5081469;28;20340;-80
2023/09/26 02:56:57;;;;;;;;;;;14.30;99.90;;;;;;5098080;28;20068;-80
2023/09/26 02:59:23;;;;;;;;;;;14.20;99.90;;;;;;5089512;28;20007;-80
2023/09/26 03:01:48;;;;;;;;;;;14.20;99.90;;;;;;5086075;28;20362;-81
2023/09/26 03:04:14;;;;;;;;;;;14.20;99.90;;;;;;5128771;27;19943;-80
2023/09/26 03:06:39;;;;;;;;;;;14.10;99.90;;;;;;5105160;27;19934;-80
2023/09/26 03:09:07;;;;;;;;;;;14.10;99.90;;;;;;5073770;28;19975;-80
2023/09/26 03:11:32;;;;;;;;;;;14.10;99.90;;;;;;5094053;28;20290;-81
2023/09/26 03:13:58;;;;;;;;;;;14.00;99.90;;;;;;5087214;28;19932;-80
2023/09/26 03:16:24;;;;;;;;;;;14.00;99.90;;;;;;5076462;28;19935;-80
2023/09/26 03:18:54;;;;;;;;;;;13.90;99.90;;;;;;5084677;28;19931;-80
2023/09/26 03:21:20;;;;;;;;;;;13.90;99.90;;;;;;5088044;28;20386;-80
2023/09/26 03:23:45;;;;;;;;;;;13.90;99.90;;;;;;5095317;28;19977;-80
2023/09/26 03:26:12;;;;;;;;;;;13.90;99.90;;;;;;5088054;28;19924;-80
2023/09/26 03:28:39;;;;;;;;;;;13.80;99.90;;;;;;5072139;28;19923;-80
2023/09/26 03:31:04;;;;;;;;;;;13.80;99.90;;;;;;5130611;27;19932;-80
2023/09/26 03:33:30;;;;;;;;;;;13.80;99.90;;;;;;5075494;28;20393;-80
2023/09/26 03:35:59;;;;;;;;;;;13.70;99.90;;;;;;5099206;28;19977;-80
2023/09/26 03:38:25;;;;;;;;;;;13.70;99.90;;;;;;5127525;27;19949;-80
2023/09/26 03:41:17;;;;;;;;;;;13.60;99.90;;;;;;5079368;28;19924;-76
2023/09/26 03:43:42;;;;;;;;;;;13.60;99.90;;;;;;5080261;28;19928;-76
2023/09/26 03:46:08;;;;;;;;;;;13.50;99.90;;;;;;5139444;27;20026;-76
2023/09/26 03:48:34;;;;;;;;;;;13.50;99.90;;;;;;5082563;28;19924;-77
2023/09/26 03:51:10;;;;;;;;;;;13.40;99.90;;;;;;5072280;28;19935;-76
2023/09/26 03:53:36;;;;;;;;;;;13.40;99.90;;;;;;5121786;27;20669;-77
2023/09/26 03:56:02;;;;;;;;;;;13.40;99.90;;;;;;5100968;28;19977;-77
2023/09/26 03:58:28;;;;;;;;;;;13.30;99.90;;;;;;5087681;28;20733;-77
2023/09/26 04:00:53;;;;;;;;;;;13.30;99.90;;;;;;5085996;28;20430;-77
2023/09/26 04:03:19;;;;;;;;;;;13.20;99.90;;;;;;5088256;28;19934;-76
2023/09/26 04:05:48;;;;;;;;;;;13.10;99.90;;;;;;5099935;28;19924;-77
2023/09/26 04:08:16;;;;;;;;;;;13.20;99.90;;;;;;5088720;27;19928;-77
2023/09/26 04:10:42;;;;;;;;;;;13.10;99.90;;;;;;5085842;28;20757;-76
2023/09/26 04:13:11;;;;;;;;;;;13.10;99.90;;;;;;5107546;27;20374;-77
2023/09/26 04:15:38;;;;;;;;;;;13.00;99.90;;;;;;5084633;28;20070;-77
2023/09/26 04:18:07;;;;;;;;;;;13.00;99.90;;;;;;5088102;28;20003;-77
2023/09/26 04:20:36;;;;;;;;;;;13.00;99.90;;;;;;5082846;28;19924;-77
2023/09/26 04:23:02;;;;;;;;;;;13.00;99.90;;;;;;5101707;28;19924;-76
2023/09/26 04:25:28;;;;;;;;;;;13.00;99.90;;;;;;5099504;27;19924;-80
2023/09/26 04:27:54;;;;;;;;;;;12.90;99.90;;;;;;5085519;28;19953;-80
2023/09/26 04:30:19;;;;;;;;;;;12.90;99.90;;;;;;5114000;27;19927;-80
2023/09/26 04:32:45;;;;;;;;;;;12.90;99.90;;;;;;5087921;28;19963;-80
2023/09/26 04:35:11;;;;;;;;;;;12.80;99.90;;;;;;5084995;28;20358;-80
2023/09/26 04:37:36;;;;;;;;;;;12.80;99.90;;;;;;5120052;27;20386;-80
2023/09/26 04:40:07;;;;;;;;;;;12.80;99.90;;;;;;5081071;28;20385;-80
2023/09/26 04:42:32;;;;;;;;;;;12.70;99.90;;;;;;5085994;28;19924;-80
2023/09/26 04:44:58;;;;;;;;;;;12.70;99.90;;;;;;5087835;28;19924;-80
2023/09/26 04:47:24;;;;;;;;;;;12.60;99.90;;;;;;5087871;28;19932;-80
2023/09/26 04:49:49;;;;;;;;;;;12.60;99.90;;;;;;5100348;28;20395;-80
2023/09/26 04:52:15;;;;;;;;;;;12.60;99.90;;;;;;5134021;27;19972;-80
2023/09/26 04:54:41;;;;;;;;;;;12.60;99.90;;;;;;5084604;28;20727;-80
2023/09/26 04:57:07;;;;;;;;;;;12.70;99.90;;;;;;5100574;28;19927;-80
2023/09/26 04:59:32;;;;;;;;;;;12.60;99.90;;;;;;5114377;27;20328;-81
2023/09/26 05:01:58;;;;;;;;;;;12.70;99.90;;;;;;5087382;28;19924;-80
2023/09/26 05:04:25;;;;;;;;;;;12.60;99.90;;;;;;5099091;28;20424;-81
2023/09/26 05:06:50;;;;;;;;;;;12.70;99.90;;;;;;5097575;28;19932;-80
2023/09/26 05:09:16;;;;;;;;;;;12.60;99.90;;;;;;5085827;28;19992;-80
2023/09/26 05:11:42;;;;;;;;;;;12.60;99.90;;;;;;5099971;28;19928;-81
2023/09/26 05:14:07;;;;;;;;;;;12.70;99.90;;;;;;5102803;28;19946;-80
2023/09/26 05:16:33;;;;;;;;;;;12.60;99.90;;;;;;5098007;28;19932;-81
2023/09/26 05:18:58;;;;;;;;;;;12.60;99.90;;;;;;5085873;28;19942;-80
2023/09/26 05:21:24;;;;;;;;;;;12.60;99.90;;;;;;5103834;27;19977;-81
2023/09/26 05:23:49;;;;;;;;;;;12.50;99.90;;;;;;5116849;27;20256;-80
2023/09/26 05:26:15;;;;;;;;;;;12.50;99.90;;;;;;5103506;28;19924;-81
2023/09/26 05:28:41;;;;;;;;;;;12.50;99.90;;;;;;5078238;28;19924;-81
2023/09/26 05:31:07;;;;;;;;;;;12.50;99.90;;;;;;5101694;28;19928;-81
2023/09/26 05:33:32;;;;;;;;;;;12.40;99.90;;;;;;5102785;27;19932;-80
2023/09/26 05:35:58;;;;;;;;;;;12.40;99.90;;;;;;5112230;27;20461;-81
2023/09/26 05:38:25;;;;;;;;;;;12.40;99.90;;;;;;5084721;28;19977;-81
2023/09/26 05:40:51;;;;;;;;;;;12.40;99.90;;;;;;5084155;28;19924;-81
2023/09/26 05:43:17;;;;;;;;;;;12.40;99.90;;;;;;5081806;28;19941;-81
2023/09/26 05:45:42;;;;;;;;;;;12.40;99.90;;;;;;5086022;28;19931;-81
2023/09/26 05:48:11;;;;;;;;;;;12.40;99.90;;;;;;5085180;28;19967;-81
2023/09/26 05:50:37;;;;;;;;;;;12.50;99.90;;;;;;5082095;28;20301;-81
2023/09/26 05:53:03;;;;;;;;;;;12.50;99.90;;;;;;5076556;28;19924;-81
2023/09/26 05:55:28;;;;;;;;;;;12.50;99.90;;;;;;5086770;28;19940;-81
2023/09/26 05:57:54;;;;;;;;;;;12.50;99.90;;;;;;5096629;28;19931;-81
2023/09/26 06:00:20;;;;;;;;;;;12.50;99.90;;;;;;5101263;28;19928;-81
2023/09/26 06:02:45;;;;;;;;;;;12.60;99.90;;;;;;5085914;28;20031;-81
2023/09/26 06:05:14;;;;;;;;;;;12.60;99.90;;;;;;5092087;28;20175;-81
2023/09/26 06:07:42;;;;;;;;;;;12.60;99.90;;;;;;5076155;28;20031;-81
2023/09/26 06:10:11;;;;;;;;;;;12.60;99.90;;;;;;5113426;27;20027;-82
2023/09/26 06:12:37;;;;;;;;;;;12.60;99.90;;;;;;5101122;27;20010;-83
2023/09/26 06:15:06;;;;;;;;;;;12.60;99.90;;;;;;5095289;28;20457;-82
2023/09/26 06:17:32;;;;;;;;;;;12.60;99.90;;;;;;5084351;28;20043;-81
2023/09/26 06:19:58;;;;;;;;;;;12.60;99.90;;;;;;5083539;28;19949;-81
2023/09/26 06:22:23;;;;;;;;;;;12.60;99.90;;;;;;5116681;27;19998;-81
2023/09/26 06:24:49;;;;;;;;;;;12.70;99.90;;;;;;5100713;28;20178;-81
2023/09/26 06:27:15;;;;;;;;;;;12.70;99.90;;;;;;5119572;27;20274;-81
2023/09/26 06:29:41;;;;;;;;;;;12.70;99.90;;;;;;5096706;28;20010;-82
2023/09/26 06:32:07;;;;;;;;;;;12.80;99.90;;;;;;5085697;28;19923;-81
2023/09/26 06:34:34;;;;;;;;;;;12.80;99.90;;;;;;5095981;28;19931;-81
2023/09/26 06:37:03;;;;;;;;;;;12.90;99.90;;;;;;5085327;28;19928;-81
2023/09/26 06:39:29;;;;;;;;;;;12.90;99.90;;;;;;5115869;27;20328;-81
2023/09/26 06:41:55;;;;;;;;;;;13.00;99.90;;;;;;5085315;28;19923;-81
2023/09/26 06:44:20;;;;;;;;;;;13.00;99.90;;;;;;5083436;28;19924;-81
2023/09/26 06:46:46;;;;;;;;;;;13.00;99.90;;;;;;5084276;28;20328;-81
2023/09/26 06:49:12;;;;;;;;;;;13.10;99.90;;;;;;5100474;28;19924;-81
2023/09/26 06:51:37;;;;;;;;;;;13.20;99.90;;;;;;5084797;28;21090;-81
2023/09/26 06:54:03;;;;;;;;;;;13.20;99.90;;;;;;5083214;28;19935;-81
2023/09/26 06:56:29;;;;;;;;;;;13.20;99.90;;;;;;5097312;28;19928;-77
2023/09/26 06:58:55;;;;;;;;;;;13.30;99.90;;;;;;5096342;28;20010;-78
2023/09/26 07:01:20;;;;;;;;;;;13.30;99.90;;;;;;5085669;28;21036;-78
2023/09/26 07:03:46;;;;;;;;;;;13.40;99.90;;;;;;5094878;28;20701;-78
2023/09/26 07:06:13;;;;;;;;;;;13.40;99.90;;;;;;5086401;28;20393;-78
2023/09/26 07:08:39;;;;;;;;;;;13.50;99.90;;;;;;5090213;28;19924;-78
2023/09/26 07:11:05;;;;;;;;;;;13.50;99.90;;;;;;5088711;28;19928;-78
2023/09/26 07:13:34;;;;;;;;;;;13.60;99.90;;;;;;5087162;28;19923;-78
2023/09/26 07:16:01;;;;;;;;;;;13.60;99.90;;;;;;5137886;27;19928;-78
2023/09/26 07:18:26;;;;;;;;;;;13.80;99.90;;;;;;5085986;28;19931;-77
2023/09/26 07:20:53;;;;;;;;;;;13.90;99.90;;;;;;5084497;28;19928;-78
2023/09/26 07:23:19;;;;;;;;;;;13.90;99.90;;;;;;5102014;28;19928;-77
2023/09/26 07:25:45;;;;;;;;;;;14.00;99.90;;;;;;5088768;28;20421;-78
2023/09/26 07:28:11;;;;;;;;;;;14.10;99.90;;;;;;5117583;27;19924;-77
2023/09/26 07:30:36;;;;;;;;;;;14.10;99.90;;;;;;5086791;28;19943;-78
2023/09/26 07:33:02;;;;;;;;;;;14.20;99.90;;;;;;5103326;28;20117;-78
2023/09/26 07:35:28;;;;;;;;;;;14.30;99.90;;;;;;5099866;28;19931;-78
2023/09/26 07:37:55;;;;;;;;;;;14.40;99.90;;;;;;5088057;28;19981;-75
2023/09/26 07:40:21;;;;;;;;;;;14.50;99.90;;;;;;5104731;28;19934;-77
2023/09/26 07:42:47;;;;;;;;;;;14.60;99.90;;;;;;5101131;28;19934;-78
2023/09/26 07:45:16;;;;;;;;;;;14.70;99.90;;;;;;5104700;28;20282;-77
2023/09/26 07:47:42;;;;;;;;;;;14.70;99.90;;;;;;5135540;27;20359;-77
2023/09/26 07:50:09;;;;;;;;;;;14.90;99.90;;;;;;5122060;27;20433;-78
2023/09/26 07:52:34;;;;;;;;;;;15.00;99.90;;;;;;5098284;28;20306;-77
2023/09/26 07:55:00;;;;;;;;;;;15.20;99.90;;;;;;5089619;28;19928;-77
2023/09/26 07:57:26;;;;;;;;;;;15.30;99.90;;;;;;5103068;28;19974;-77
2023/09/26 07:59:51;;;;;;;;;;;15.40;99.90;;;;;;5087004;28;20051;-77
2023/09/26 08:02:17;;;;;;;;;;;15.50;99.90;;;;;;5100903;28;20397;-77
2023/09/26 08:04:42;;;;;;;;;;;15.60;99.90;;;;;;5084634;28;19973;-77
2023/09/26 08:07:12;;;;;;;;;;;15.70;99.90;;;;;;5087228;28;19959;-77
2023/09/26 08:09:38;;;;;;;;;;;15.80;99.90;;;;;;5104811;28;19924;-76
2023/09/26 08:12:04;;;;;;;;;;;15.80;99.90;;;;;;5086204;28;19932;-77
2023/09/26 08:14:29;;;;;;;;;;;15.90;99.90;;;;;;5085180;28;19934;-77
2023/09/26 08:16:55;;;;;;;;;;;16.00;99.90;;;;;;5100483;28;19970;-77
2023/09/26 08:19:21;;;;;;;;;;;16.00;99.90;;;;;;5086686;28;19984;-79
2023/09/26 08:21:46;;;;;;;;;;;16.00;99.90;;;;;;5102960;28;19931;-77
2023/09/26 08:24:12;;;;;;;;;;;16.00;99.90;;;;;;5085709;28;20410;-77
2023/09/26 08:26:37;;;;;;;;;;;15.90;99.90;;;;;;5101369;27;19927;-77
2023/09/26 08:29:05;;;;;;;;;;;16.00;99.90;;;;;;5103345;28;20369;-77
2023/09/26 08:31:31;;;;;;;;;;;15.90;99.90;;;;;;5083441;28;20034;-77
2023/09/26 08:33:57;;;;;;;;;;;15.90;99.90;;;;;;5088198;28;20022;-77
2023/09/26 08:36:22;;;;;;;;;;;15.90;99.90;;;;;;5103507;28;19923;-77
2023/09/26 08:38:49;;;;;;;;;;;15.90;99.90;;;;;;5084066;28;20447;-77
2023/09/26 08:41:15;;;;;;;;;;;16.00;99.90;;;;;;5086563;28;20204;-77
2023/09/26 08:43:42;;;;;;;;;;;16.00;99.90;;;;;;5087416;28;19989;-77
2023/09/26 08:46:08;;;;;;;;;;;16.00;99.90;;;;;;5082968;28;19953;-77
2023/09/26 08:48:34;;;;;;;;;;;16.10;99.90;;;;;;5100297;28;19942;-77
2023/09/26 08:51:00;;;;;;;;;;;16.10;99.90;;;;;;5086558;28;19973;-77
2023/09/26 08:53:26;;;;;;;;;;;16.10;99.90;;;;;;5104884;28;20328;-76
2023/09/26 08:55:52;;;;;;;;;;;16.10;99.90;;;;;;5099501;28;19966;-76
2023/09/26 08:58:19;;;;;;;;;;;16.10;99.90;;;;;;5119228;27;20007;-77
2023/09/26 09:00:45;;;;;;;;;;;16.20;99.90;;;;;;5084103;28;19977;-77
2023/09/26 09:03:12;;;;;;;;;;;16.20;99.90;;;;;;5101527;28;20362;-77
2023/09/26 09:05:39;;;;;;;;;;;16.20;99.90;;;;;;5101886;28;19932;-76
2023/09/26 09:08:05;;;;;;;;;;;16.30;99.90;;;;;;5105344;28;20208;-77
2023/09/26 09:10:31;;;;;;;;;;;16.30;99.90;;;;;;5084009;28;19931;-76
2023/09/26 09:13:04;;;;;;;;;;;16.30;99.90;;;;;;5086680;28;19932;-76
2023/09/26 09:15:30;;;;;;;;;;;16.30;99.90;;;;;;5085751;28;20023;-76
2023/09/26 09:17:57;;;;;;;;;;;16.40;99.90;;;;;;5087419;28;19977;-76
2023/09/26 09:20:30;;;;;;;;;;;16.50;99.90;;;;;;5086699;28;19978;-76
2023/09/26 09:23:06;;;;;;;;;;;16.70;99.90;;;;;;5086828;27;19947;-76
2023/09/26 09:25:32;;;;;;;;;;;16.90;99.90;;;;;;5102685;27;20301;-76
2023/09/26 09:27:59;;;;;;;;;;;17.20;99.90;;;;;;5102550;28;19924;-76
2023/09/26 09:30:24;;;;;;;;;;;17.40;99.90;;;;;;5128321;27;19924;-76
2023/09/26 09:32:50;;;;;;;;;;;17.60;99.90;;;;;;5102032;28;20475;-76
2023/09/26 09:35:17;;;;;;;;;;;17.70;99.90;;;;;;5087266;28;20359;-76
2023/09/26 09:37:47;;;;;;;;;;;17.90;99.90;;;;;;5086817;28;20282;-77
2023/09/26 09:40:19;;;;;;;;;;;18.10;99.90;;;;;;5095447;28;19924;-76
2023/09/26 09:42:55;;;;;;;;;;;18.20;99.90;;;;;;5100464;27;19975;-76
2023/09/26 09:45:21;;;;;;;;;;;18.40;99.90;;;;;;5118071;27;19928;-76
2023/09/26 09:47:47;;;;;;;;;;;18.50;99.90;;;;;;5101460;28;20671;-76
2023/09/26 09:50:14;;;;;;;;;;;18.60;99.90;;;;;;5135512;27;19931;-76
2023/09/26 09:52:43;;;;;;;;;;;18.60;99.90;;;;;;5083278;27;20015;-77
2023/09/26 09:55:13;;;;;;;;;;;18.60;99.90;;;;;;5100986;28;19924;-76
2023/09/26 09:57:42;;;;;;;;;;;18.70;99.90;;;;;;5082894;28;20010;-76
2023/09/26 10:00:08;;;;;;;;;;;18.70;99.90;;;;;;5085491;28;20374;-75
2023/09/26 10:02:34;;;;;;;;;;;18.80;99.90;;;;;;5094250;28;19957;-76
2023/09/26 10:05:00;;;;;;;;;;;18.90;99.90;;;;;;5116134;27;19984;-76
2023/09/26 10:07:27;;;;;;;;;;;18.90;99.90;;;;;;5100276;28;21436;-76
2023/09/26 10:09:54;;;;;;;;;;;18.80;99.90;;;;;;5101639;28;19955;-77
2023/09/26 10:12:20;;;;;;;;;;;18.80;99.90;;;;;;5100758;28;19930;-77
2023/09/26 10:14:45;;;;;;;;;;;18.70;99.90;;;;;;5092801;28;19924;-76
2023/09/26 10:17:11;;;;;;;;;;;18.60;99.90;;;;;;5087286;28;20026;-77
2023/09/26 10:19:37;;;;;;;;;;;18.60;99.90;;;;;;5116661;27;20334;-76
2023/09/26 10:22:15;;;;;;;;;;;18.60;99.90;;;;;;5086026;28;19924;-76
2023/09/26 10:24:44;;;;;;;;;;;18.50;99.90;;;;;;5082210;28;19928;-76
2023/09/26 10:27:09;;;;;;;;;;;18.50;99.90;;;;;;5096530;28;19924;-76
2023/09/26 10:29:36;;;;;;;;;;;18.50;99.90;;;;;;5098073;28;19934;-76
2023/09/26 10:32:06;;;;;;;;;;;18.60;99.90;;;;;;5103412;28;19927;-78
2023/09/26 10:34:33;;;;;;;;;;;18.60;99.90;;;;;;5096098;28;19979;-77
2023/09/26 10:36:59;;;;;;;;;;;18.60;99.90;;;;;;5101041;28;19985;-76
2023/09/26 10:39:37;;;;;;;;;;;18.70;99.90;;;;;;5098262;28;19931;-77
2023/09/26 10:42:22;;;;;;;;;;;18.70;99.90;;;;;;5139901;27;19931;-76
2023/09/26 10:44:51;;;;;;;;;;;18.70;99.90;;;;;;5119553;27;19977;-76
2023/09/26 10:47:17;;;;;;;;;;;18.70;99.90;;;;;;5090246;28;20031;-77
2023/09/26 10:49:45;;;;;;;;;;;18.80;99.90;;;;;;5121118;27;19930;-77
2023/09/26 10:52:12;;;;;;;;;;;18.80;99.90;;;;;;5087523;28;19924;-76
2023/09/26 10:54:39;;;;;;;;;;;18.80;99.90;;;;;;5098912;28;19939;-76
2023/09/26 10:57:05;;;;;;;;;;;18.80;99.90;;;;;;5101130;28;20014;-76
2023/09/26 10:59:31;;;;;;;;;;;18.80;99.90;;;;;;5101262;28;20018;-76
2023/09/26 11:01:58;;;;;;;;;;;18.80;99.90;;;;;;5105357;28;19924;-76
2023/09/26 11:04:25;;;;;;;;;;;18.80;99.90;;;;;;5088257;28;19924;-76
2023/09/26 11:06:50;;;;;;;;;;;18.90;99.90;;;;;;5107032;28;19980;-76
2023/09/26 11:09:16;;;;;;;;;;;19.00;99.90;;;;;;5102982;27;20028;-76
2023/09/26 11:11:45;;;;;;;;;;;19.00;99.90;;;;;;5104790;28;20556;-77
2023/09/26 11:14:11;;;;;;;;;;;19.10;99.90;;;;;;5100505;28;19931;-76
2023/09/26 11:16:36;;;;;;;;;;;19.10;99.90;;;;;;5103486;28;19924;-75
2023/09/26 11:19:02;;;;;;;;;;;19.10;99.90;;;;;;5105007;28;19923;-80
2023/09/26 11:21:28;;;;;;;;;;;19.10;99.90;;;;;;5101932;28;20228;-80
2023/09/26 11:23:54;;;;;;;;;;;19.10;99.90;;;;;;5104487;27;19924;-80
2023/09/26 11:26:19;;;;;;;;;;;19.10;99.90;;;;;;5102623;28;19931;-80
2023/09/26 11:28:45;;;;;;;;;;;19.20;99.90;;;;;;5103082;28;19932;-80
2023/09/26 11:31:12;;;;;;;;;;;19.20;99.90;;;;;;5085501;28;20306;-80
2023/09/26 11:33:41;;;;;;;;;;;19.20;99.90;;;;;;5099948;28;20006;-81
2023/09/26 11:36:06;;;;;;;;;;;19.20;99.90;;;;;;5105137;28;19950;-76
2023/09/26 11:38:32;;;;;;;;;;;19.20;99.90;;;;;;5085297;28;20375;-76
2023/09/26 11:40:58;;;;;;;;;;;19.30;99.90;;;;;;5087755;28;19955;-75
2023/09/26 11:43:23;;;;;;;;;;;19.30;99.90;;;;;;5100032;28;19931;-76
2023/09/26 11:45:58;;;;;;;;;;;19.30;99.90;;;;;;5104566;28;19931;-76
2023/09/26 11:48:24;;;;;;;;;;;19.30;99.90;;;;;;5085639;27;19946;-76
2023/09/26 11:50:50;;;;;;;;;;;19.40;99.90;;;;;;5100074;28;19931;-76
2023/09/26 11:53:16;;;;;;;;;;;19.40;99.90;;;;;;5087653;28;20396;-76
2023/09/26 11:55:42;;;;;;;;;;;19.40;99.90;;;;;;5100856;28;19928;-76
2023/09/26 11:58:08;;;;;;;;;;;19.40;99.90;;;;;;5101111;28;20045;-76
2023/09/26 12:00:33;;;;;;;;;;;19.50;99.90;;;;;;5102694;28;19997;-76
2023/09/26 12:02:59;;;;;;;;;;;19.50;99.90;;;;;;5087696;28;19924;-76
2023/09/26 12:05:25;;;;;;;;;;;19.50;99.90;;;;;;5099749;28;20286;-76
2023/09/26 12:07:50;;;;;;;;;;;19.60;99.90;;;;;;5138425;27;19927;-76
2023/09/26 12:10:16;;;;;;;;;;;19.60;99.90;;;;;;5101528;27;19991;-76
2023/09/26 12:12:42;;;;;;;;;;;19.70;99.90;;;;;;5103735;28;20305;-76
2023/09/26 12:15:15;;;;;;;;;;;19.70;99.90;;;;;;5120661;27;19938;-76
2023/09/26 12:17:40;;;;;;;;;;;19.70;99.90;;;;;;5081300;28;19932;-76
2023/09/26 12:20:09;;;;;;;;;;;19.70;99.90;;;;;;5083409;28;19951;-76
2023/09/26 12:22:35;;;;;;;;;;;19.70;99.90;;;;;;5088507;28;19934;-76
2023/09/26 12:25:01;;;;;;;;;;;19.70;99.90;;;;;;5104713;27;20440;-76
2023/09/26 12:27:26;;;;;;;;;;;19.70;99.90;;;;;;5119458;27;19932;-76
2023/09/26 12:29:53;;;;;;;;;;;19.70;99.90;;;;;;5099577;27;20314;-76
2023/09/26 12:32:18;;;;;;;;;;;19.70;99.90;;;;;;5099979;28;19976;-76
2023/09/26 12:34:44;;;;;;;;;;;19.70;99.90;;;;;;5098099;28;20015;-75
2023/09/26 12:37:10;;;;;;;;;;;19.80;99.90;;;;;;5088841;28;19928;-75
2023/09/26 12:39:35;;;;;;;;;;;19.80;99.90;;;;;;5099190;28;19981;-75
2023/09/26 12:42:01;;;;;;;;;;;19.90;99.90;;;;;;5102765;28;20028;-76
2023/09/26 12:44:28;;;;;;;;;;;20.10;99.90;;;;;;5088056;28;19950;-76
2023/09/26 12:46:54;;;;;;;;;;;20.20;99.90;;;;;;5087635;28;19924;-75
2023/09/26 12:49:19;;;;;;;;;;;20.20;99.90;;;;;;5101108;27;19928;-75
2023/09/26 12:51:45;;;;;;;;;;;20.30;99.90;;;;;;5136293;27;19930;-76
2023/09/26 12:54:11;;;;;;;;;;;20.30;99.90;;;;;;5085962;28;19932;-75
2023/09/26 12:56:36;;;;;;;;;;;20.40;99.90;;;;;;5086576;28;19971;-75
2023/09/26 12:59:02;;;;;;;;;;;20.40;99.90;;;;;;5100447;28;20095;-77
2023/09/26 13:01:28;;;;;;;;;;;20.40;99.90;;;;;;5103441;28;19978;-76
2023/09/26 13:03:54;;;;;;;;;;;20.40;99.90;;;;;;5101334;28;20264;-77
2023/09/26 13:06:20;;;;;;;;;;;20.30;99.90;;;;;;5120720;27;19934;-76
2023/09/26 13:08:46;;;;;;;;;;;20.40;99.90;;;;;;5100941;28;19923;-77
2023/09/26 13:11:11;;;;;;;;;;;20.50;99.90;;;;;;5101604;28;19927;-76
2023/09/26 13:13:37;;;;;;;;;;;20.60;99.90;;;;;;5085945;28;19923;-77
2023/09/26 13:16:06;;;;;;;;;;;20.70;99.90;;;;;;5104511;28;19932;-77
2023/09/26 13:18:31;;;;;;;;;;;20.70;99.90;;;;;;5099017;28;20389;-78
2023/09/26 13:20:57;;;;;;;;;;;20.60;99.90;;;;;;5105189;27;19923;-77
2023/09/26 13:23:22;;;;;;;;;;;20.70;99.90;;;;;;5114934;27;19924;-76
2023/09/26 13:25:48;;;;;;;;;;;20.70;99.90;;;;;;5083632;28;19983;-77
2023/09/26 13:28:14;;;;;;;;;;;20.70;99.90;;;;;;5135894;27;19928;-76
2023/09/26 13:30:39;;;;;;;;;;;20.70;99.90;;;;;;5099198;28;19924;-77
2023/09/26 13:33:11;;;;;;;;;;;20.70;99.90;;;;;;5102734;28;19924;-77
2023/09/26 13:35:37;;;;;;;;;;;20.70;99.90;;;;;;5102692;28;19924;-76
2023/09/26 13:38:03;;;;;;;;;;;20.70;99.90;;;;;;5101087;28;19930;-77
2023/09/26 13:40:28;;;;;;;;;;;20.60;99.90;;;;;;5101592;27;20342;-76
2023/09/26 13:42:54;;;;;;;;;;;20.60;99.90;;;;;;5097372;28;19966;-76
2023/09/26 13:45:19;;;;;;;;;;;20.60;99.90;;;;;;5105030;28;19963;-76
2023/09/26 13:47:45;;;;;;;;;;;20.60;99.90;;;;;;5099741;28;20345;-76
2023/09/26 13:50:11;;;;;;;;;;;20.50;99.90;;;;;;5100085;28;19928;-75
2023/09/26 13:52:36;;;;;;;;;;;20.60;99.90;;;;;;5099856;28;19938;-75
2023/09/26 13:55:02;;;;;;;;;;;20.60;99.90;;;;;;5087365;28;19970;-75
2023/09/26 13:57:28;;;;;;;;;;;20.70;99.90;;;;;;5095670;28;19924;-76
2023/09/26 13:59:53;;;;;;;;;;;20.70;99.90;;;;;;5118479;27;19975;-76
2023/09/26 14:02:19;;;;;;;;;;;20.60;99.90;;;;;;5097790;28;19932;-76
2023/09/26 14:04:45;;;;;;;;;;;20.70;99.90;;;;;;5102180;28;19967;-76
2023/09/26 14:07:10;;;;;;;;;;;20.70;99.90;;;;;;5097469;28;19954;-76
2023/09/26 14:09:36;;;;;;;;;;;20.70;99.90;;;;;;5104624;27;19931;-76
2023/09/26 14:12:04;;;;;;;;;;;20.70;99.90;;;;;;5097683;28;20383;-76